Accueil
METAR-TAF:

METAR-TAF

Aéroports :

Aéroport international de Genève

Genève, Suisse

latitude: 46-15N, longitude: 006-08E, altitude: 420 m

Observation

Le bulletin a été fait il y a 32 minutes, à 15:20 UTC
Vent 1 kt de nord-ouest
Température 6°C
Humidité 81%
Pression 1008 hPa
Visibilité: 9000 m
Ciel couvert à une hauteur de 1300 ft

METAR: LSGG 211520Z 32001KT 9000 OVC013 06/03 Q1008 NOSIG

Heure: 16:52 (15:52 UTC)

Prévision

Le bulletin a été fait il y a 1 heure et 27 minutes, à 14:25 UTC
Prévision valable du 21 à 15 UTC au 22 à 21 UTC
Vent 2 kt de direction variable
Visibilité 10 km ou plus
Ciel couvert à une hauteur de 1300 ft
Evoluant progressivement
du 22 à 06 UTC au 22 à 08 UTC
Ciel couvert à une hauteur de 800 ft

TAF: LSGG 211425Z 2115/2221 VRB02KT 9999 OVC013 TX06/2115Z TN03/2206Z TX07/2214Z BECMG 2206/2208 OVC008

Observations et prévisions météorologiques de plus de 4000 aéroports (messages METAR et TAF).

Les stations disponibles sont représentées par des disques jaunes et rouges sur la carte.

Passer la souris dessus pour voir le nom de la station.

Cliquer dessus pour voir les observations et prévisions météorologiques.

Pour changer de carte: cliquez sur les boutons verts avec une croix noire pour zoomer, sur le bouton vert avec un tiret pour effectuer un zoom arrière, ou sur les flèches vertes pour les cartes adjacentes.


METAR-TAF: